sensor_id;sensor_type;location;lat;lon;timestamp;temperature;humidity
23301;DHT22;11819;51.394;12.340;2023-05-07T00:01:41;13.50;90.90
23301;DHT22;11819;51.394;12.340;2023-05-07T00:04:07;13.50;90.80
23301;DHT22;11819;51.394;12.340;2023-05-07T00:06:33;13.40;90.90
23301;DHT22;11819;51.394;12.340;2023-05-07T00:08:58;13.40;90.80
23301;DHT22;11819;51.394;12.340;2023-05-07T00:11:25;13.40;90.80
23301;DHT22;11819;51.394;12.340;2023-05-07T00:13:52;13.40;90.80
23301;DHT22;11819;51.394;12.340;2023-05-07T00:16:18;13.40;90.80
23301;DHT22;11819;51.394;12.340;2023-05-07T00:18:43;13.40;90.90
23301;DHT22;11819;51.394;12.340;2023-05-07T00:21:10;13.40;90.70
23301;DHT22;11819;51.394;12.340;2023-05-07T00:23:36;13.40;90.70
23301;DHT22;11819;51.394;12.340;2023-05-07T00:26:03;13.30;90.60
23301;DHT22;11819;51.394;12.340;2023-05-07T00:28:29;13.30;90.70
23301;DHT22;11819;51.394;12.340;2023-05-07T00:30:55;13.20;90.80
23301;DHT22;11819;51.394;12.340;2023-05-07T00:33:21;13.20;90.80
23301;DHT22;11819;51.394;12.340;2023-05-07T00:35:47;13.20;90.80
23301;DHT22;11819;51.394;12.340;2023-05-07T00:38:14;13.20;90.90
23301;DHT22;11819;51.394;12.340;2023-05-07T00:40:40;13.20;90.90
23301;DHT22;11819;51.394;12.340;2023-05-07T00:43:06;13.20;90.90
23301;DHT22;11819;51.394;12.340;2023-05-07T00:45:33;13.30;90.80
23301;DHT22;11819;51.394;12.340;2023-05-07T00:48:02;13.20;90.70
23301;DHT22;11819;51.394;12.340;2023-05-07T00:50:28;13.20;90.70
23301;DHT22;11819;51.394;12.340;2023-05-07T00:52:55;13.20;90.70
23301;DHT22;11819;51.394;12.340;2023-05-07T00:55:22;13.20;90.70
23301;DHT22;11819;51.394;12.340;2023-05-07T00:57:49;13.20;90.70
23301;DHT22;11819;51.394;12.340;2023-05-07T01:00:15;13.20;90.70
23301;DHT22;11819;51.394;12.340;2023-05-07T01:02:42;13.20;90.70
23301;DHT22;11819;51.394;12.340;2023-05-07T01:05:09;13.20;90.80
23301;DHT22;11819;51.394;12.340;2023-05-07T01:07:36;13.20;90.80
23301;DHT22;11819;51.394;12.340;2023-05-07T01:10:04;13.20;90.70
23301;DHT22;11819;51.394;12.340;2023-05-07T01:12:30;13.10;90.70
23301;DHT22;11819;51.394;12.340;2023-05-07T01:14:57;13.10;90.80
23301;DHT22;11819;51.394;12.340;2023-05-07T01:17:23;13.10;90.80
23301;DHT22;11819;51.394;12.340;2023-05-07T01:19:52;13.10;90.90
23301;DHT22;11819;51.394;12.340;2023-05-07T01:22:39;13.10;90.90
23301;DHT22;11819;51.394;12.340;2023-05-07T01:25:06;13.10;90.90
23301;DHT22;11819;51.394;12.340;2023-05-07T01:27:36;13.10;90.90
23301;DHT22;11819;51.394;12.340;2023-05-07T01:30:06;13.10;90.80
23301;DHT22;11819;51.394;12.340;2023-05-07T01:32:35;13.00;90.90
23301;DHT22;11819;51.394;12.340;2023-05-07T01:35:14;13.00;90.90
23301;DHT22;11819;51.394;12.340;2023-05-07T01:37:41;13.00;90.80
23301;DHT22;11819;51.394;12.340;2023-05-07T01:40:07;13.00;90.90
23301;DHT22;11819;51.394;12.340;2023-05-07T01:42:33;13.00;91.00
23301;DHT22;11819;51.394;12.340;2023-05-07T01:44:59;13.00;91.00
23301;DHT22;11819;51.394;12.340;2023-05-07T01:47:25;13.00;91.00
23301;DHT22;11819;51.394;12.340;2023-05-07T01:49:52;13.00;91.00
23301;DHT22;11819;51.394;12.340;2023-05-07T01:52:18;13.00;91.00
23301;DHT22;11819;51.394;12.340;2023-05-07T01:54:43;13.00;91.00
23301;DHT22;11819;51.394;12.340;2023-05-07T01:57:09;13.00;91.00
23301;DHT22;11819;51.394;12.340;2023-05-07T01:59:35;13.00;91.10
23301;DHT22;11819;51.394;12.340;2023-05-07T02:02:01;13.00;91.00
23301;DHT22;11819;51.394;12.340;2023-05-07T02:04:27;13.00;91.00
23301;DHT22;11819;51.394;12.340;2023-05-07T02:06:53;13.00;91.00
23301;DHT22;11819;51.394;12.340;2023-05-07T02:09:19;13.00;91.10
23301;DHT22;11819;51.394;12.340;2023-05-07T02:11:47;13.00;91.10
23301;DHT22;11819;51.394;12.340;2023-05-07T02:14:13;13.00;91.00
23301;DHT22;11819;51.394;12.340;2023-05-07T02:16:38;13.00;91.00
23301;DHT22;11819;51.394;12.340;2023-05-07T02:19:04;13.00;91.00
23301;DHT22;11819;51.394;12.340;2023-05-07T02:21:32;13.00;90.90
23301;DHT22;11819;51.394;12.340;2023-05-07T02:23:59;13.00;90.90
23301;DHT22;11819;51.394;12.340;2023-05-07T02:26:25;12.90;91.00
23301;DHT22;11819;51.394;12.340;2023-05-07T02:28:51;12.90;91.10
23301;DHT22;11819;51.394;12.340;2023-05-07T02:31:17;12.90;91.10
23301;DHT22;11819;51.394;12.340;2023-05-07T02:33:43;12.90;91.20
23301;DHT22;11819;51.394;12.340;2023-05-07T02:36:10;12.90;91.10
23301;DHT22;11819;51.394;12.340;2023-05-07T02:38:43;12.90;91.10
23301;DHT22;11819;51.394;12.340;2023-05-07T02:41:09;12.90;91.00
23301;DHT22;11819;51.394;12.340;2023-05-07T02:43:36;12.80;91.10
23301;DHT22;11819;51.394;12.340;2023-05-07T02:46:07;12.80;91.10
23301;DHT22;11819;51.394;12.340;2023-05-07T02:48:36;12.80;91.10
23301;DHT22;11819;51.394;12.340;2023-05-07T02:51:03;12.80;91.10
23301;DHT22;11819;51.394;12.340;2023-05-07T02:53:32;12.80;91.20
23301;DHT22;11819;51.394;12.340;2023-05-07T02:56:01;12.80;91.20
23301;DHT22;11819;51.394;12.340;2023-05-07T02:58:27;12.80;91.20
23301;DHT22;11819;51.394;12.340;2023-05-07T03:00:53;12.80;91.20
23301;DHT22;11819;51.394;12.340;2023-05-07T03:03:28;12.80;91.20
23301;DHT22;11819;51.394;12.340;2023-05-07T03:05:54;12.80;91.20
23301;DHT22;11819;51.394;12.340;2023-05-07T03:08:19;12.80;91.30
23301;DHT22;11819;51.394;12.340;2023-05-07T03:10:45;12.80;91.20
23301;DHT22;11819;51.394;12.340;2023-05-07T03:13:12;12.80;91.30
23301;DHT22;11819;51.394;12.340;2023-05-07T03:15:38;12.80;91.30
23301;DHT22;11819;51.394;12.340;2023-05-07T03:18:03;12.80;91.30
23301;DHT22;11819;51.394;12.340;2023-05-07T03:20:29;12.80;91.30
23301;DHT22;11819;51.394;12.340;2023-05-07T03:22:55;12.80;91.30
23301;DHT22;11819;51.394;12.340;2023-05-07T03:25:21;12.70;91.40
23301;DHT22;11819;51.394;12.340;2023-05-07T03:27:47;12.70;91.30
23301;DHT22;11819;51.394;12.340;2023-05-07T03:30:14;12.70;91.50
23301;DHT22;11819;51.394;12.340;2023-05-07T03:32:40;12.70;91.50
23301;DHT22;11819;51.394;12.340;2023-05-07T03:35:09;12.70;91.40
23301;DHT22;11819;51.394;12.340;2023-05-07T03:37:35;12.70;91.40
23301;DHT22;11819;51.394;12.340;2023-05-07T03:40:01;12.70;91.40
23301;DHT22;11819;51.394;12.340;2023-05-07T03:42:29;12.70;91.40
23301;DHT22;11819;51.394;12.340;2023-05-07T03:44:54;12.70;91.30
23301;DHT22;11819;51.394;12.340;2023-05-07T03:47:20;12.70;91.30
23301;DHT22;11819;51.394;12.340;2023-05-07T03:49:46;12.70;91.40
23301;DHT22;11819;51.394;12.340;2023-05-07T03:52:14;12.70;91.40
23301;DHT22;11819;51.394;12.340;2023-05-07T03:54:40;12.70;91.40
23301;DHT22;11819;51.394;12.340;2023-05-07T03:57:05;12.60;91.40
23301;DHT22;11819;51.394;12.340;2023-05-07T03:59:31;12.60;91.50
23301;DHT22;11819;51.394;12.340;2023-05-07T04:01:58;12.60;91.60
23301;DHT22;11819;51.394;12.340;2023-05-07T04:04:29;12.60;91.60
23301;DHT22;11819;51.394;12.340;2023-05-07T04:07:00;12.60;91.60
23301;DHT22;11819;51.394;12.340;2023-05-07T04:09:26;12.60;91.60
23301;DHT22;11819;51.394;12.340;2023-05-07T04:11:53;12.60;91.60
23301;DHT22;11819;51.394;12.340;2023-05-07T04:14:18;12.60;91.50
23301;DHT22;11819;51.394;12.340;2023-05-07T04:16:44;12.60;91.60
23301;DHT22;11819;51.394;12.340;2023-05-07T04:19:11;12.60;91.60
23301;DHT22;11819;51.394;12.340;2023-05-07T04:21:38;12.60;91.70
23301;DHT22;11819;51.394;12.340;2023-05-07T04:24:04;12.60;91.60
23301;DHT22;11819;51.394;12.340;2023-05-07T04:26:30;12.60;91.60
23301;DHT22;11819;51.394;12.340;2023-05-07T04:28:57;12.70;91.60
23301;DHT22;11819;51.394;12.340;2023-05-07T04:31:25;12.70;91.50
23301;DHT22;11819;51.394;12.340;2023-05-07T04:33:53;12.70;91.60
23301;DHT22;11819;51.394;12.340;2023-05-07T04:36:19;12.70;91.60
23301;DHT22;11819;51.394;12.340;2023-05-07T04:38:50;12.60;91.60
23301;DHT22;11819;51.394;12.340;2023-05-07T04:41:17;12.60;91.60
23301;DHT22;11819;51.394;12.340;2023-05-07T04:43:43;12.60;91.60
23301;DHT22;11819;51.394;12.340;2023-05-07T04:46:10;12.60;91.70
23301;DHT22;11819;51.394;12.340;2023-05-07T04:48:36;12.60;91.70
23301;DHT22;11819;51.394;12.340;2023-05-07T04:51:04;12.70;91.60
23301;DHT22;11819;51.394;12.340;2023-05-07T04:53:30;12.70;91.50
23301;DHT22;11819;51.394;12.340;2023-05-07T04:55:57;12.70;91.60
23301;DHT22;11819;51.394;12.340;2023-05-07T04:58:24;12.70;91.60
23301;DHT22;11819;51.394;12.340;2023-05-07T05:00:49;12.70;91.50
23301;DHT22;11819;51.394;12.340;2023-05-07T05:03:15;12.70;91.50
23301;DHT22;11819;51.394;12.340;2023-05-07T05:05:41;12.80;91.40
23301;DHT22;11819;51.394;12.340;2023-05-07T05:08:08;12.70;91.40
23301;DHT22;11819;51.394;12.340;2023-05-07T05:10:37;12.70;91.50
23301;DHT22;11819;51.394;12.340;2023-05-07T05:13:02;12.80;91.30
23301;DHT22;11819;51.394;12.340;2023-05-07T05:15:28;12.70;91.10
23301;DHT22;11819;51.394;12.340;2023-05-07T05:17:54;12.70;91.20
23301;DHT22;11819;51.394;12.340;2023-05-07T05:20:20;12.60;91.20
23301;DHT22;11819;51.394;12.340;2023-05-07T05:22:47;12.60;91.20
23301;DHT22;11819;51.394;12.340;2023-05-07T05:25:13;12.60;91.30
23301;DHT22;11819;51.394;12.340;2023-05-07T05:27:38;12.60;91.50
23301;DHT22;11819;51.394;12.340;2023-05-07T05:30:05;12.60;91.40
23301;DHT22;11819;51.394;12.340;2023-05-07T05:32:32;12.60;91.40
23301;DHT22;11819;51.394;12.340;2023-05-07T05:34:58;12.60;91.40
23301;DHT22;11819;51.394;12.340;2023-05-07T05:37:26;12.60;91.40
23301;DHT22;11819;51.394;12.340;2023-05-07T05:39:52;12.50;91.30
23301;DHT22;11819;51.394;12.340;2023-05-07T05:42:21;12.60;91.40
23301;DHT22;11819;51.394;12.340;2023-05-07T05:44:47;12.60;91.40
23301;DHT22;11819;51.394;12.340;2023-05-07T05:47:13;12.60;91.40
23301;DHT22;11819;51.394;12.340;2023-05-07T05:49:39;12.70;91.30
23301;DHT22;11819;51.394;12.340;2023-05-07T05:52:06;12.70;91.20
23301;DHT22;11819;51.394;12.340;2023-05-07T05:54:32;12.60;91.20
23301;DHT22;11819;51.394;12.340;2023-05-07T05:56:58;12.70;91.30
23301;DHT22;11819;51.394;12.340;2023-05-07T05:59:24;12.70;91.20
23301;DHT22;11819;51.394;12.340;2023-05-07T06:01:51;12.70;91.20
23301;DHT22;11819;51.394;12.340;2023-05-07T06:04:16;12.80;91.20
23301;DHT22;11819;51.394;12.340;2023-05-07T06:06:42;12.80;91.10
23301;DHT22;11819;51.394;12.340;2023-05-07T06:09:08;12.90;91.00
23301;DHT22;11819;51.394;12.340;2023-05-07T06:11:38;12.90;90.90
23301;DHT22;11819;51.394;12.340;2023-05-07T06:14:06;13.00;90.80
23301;DHT22;11819;51.394;12.340;2023-05-07T06:16:34;13.00;90.70
23301;DHT22;11819;51.394;12.340;2023-05-07T06:19:01;13.00;90.60
23301;DHT22;11819;51.394;12.340;2023-05-07T06:21:27;13.00;90.50
23301;DHT22;11819;51.394;12.340;2023-05-07T06:23:54;13.10;90.50
23301;DHT22;11819;51.394;12.340;2023-05-07T06:26:20;13.10;90.30
23301;DHT22;11819;51.394;12.340;2023-05-07T06:28:47;13.10;90.10
23301;DHT22;11819;51.394;12.340;2023-05-07T06:31:19;13.00;90.10
23301;DHT22;11819;51.394;12.340;2023-05-07T06:33:58;13.00;90.10
23301;DHT22;11819;51.394;12.340;2023-05-07T06:36:31;13.00;90.10
23301;DHT22;11819;51.394;12.340;2023-05-07T06:38:59;13.00;90.00
23301;DHT22;11819;51.394;12.340;2023-05-07T06:41:25;13.00;90.10
23301;DHT22;11819;51.394;12.340;2023-05-07T06:43:51;12.90;90.10
23301;DHT22;11819;51.394;12.340;2023-05-07T06:46:29;13.00;90.20
23301;DHT22;11819;51.394;12.340;2023-05-07T06:48:55;13.00;90.10
23301;DHT22;11819;51.394;12.340;2023-05-07T06:51:22;13.00;90.10
23301;DHT22;11819;51.394;12.340;2023-05-07T06:53:48;13.00;90.10
23301;DHT22;11819;51.394;12.340;2023-05-07T06:56:14;13.10;90.10
23301;DHT22;11819;51.394;12.340;2023-05-07T06:58:40;13.10;90.00
23301;DHT22;11819;51.394;12.340;2023-05-07T07:01:07;13.10;90.00
23301;DHT22;11819;51.394;12.340;2023-05-07T07:03:34;13.10;90.00
23301;DHT22;11819;51.394;12.340;2023-05-07T07:05:59;13.20;90.00
23301;DHT22;11819;51.394;12.340;2023-05-07T07:08:28;13.20;90.00
23301;DHT22;11819;51.394;12.340;2023-05-07T07:10:54;13.20;89.80
23301;DHT22;11819;51.394;12.340;2023-05-07T07:13:23;13.20;89.90
23301;DHT22;11819;51.394;12.340;2023-05-07T07:15:48;13.10;90.00
23301;DHT22;11819;51.394;12.340;2023-05-07T07:18:16;13.00;90.00
23301;DHT22;11819;51.394;12.340;2023-05-07T07:20:42;13.00;90.10
23301;DHT22;11819;51.394;12.340;2023-05-07T07:23:10;13.00;90.10
23301;DHT22;11819;51.394;12.340;2023-05-07T07:25:35;13.00;90.00
23301;DHT22;11819;51.394;12.340;2023-05-07T07:28:02;13.00;89.90
23301;DHT22;11819;51.394;12.340;2023-05-07T07:30:28;13.10;90.00
23301;DHT22;11819;51.394;12.340;2023-05-07T07:32:54;13.20;89.90
23301;DHT22;11819;51.394;12.340;2023-05-07T07:35:20;13.20;89.30
23301;DHT22;11819;51.394;12.340;2023-05-07T07:37:48;13.20;89.00
23301;DHT22;11819;51.394;12.340;2023-05-07T07:40:15;13.20;88.90
23301;DHT22;11819;51.394;12.340;2023-05-07T07:42:43;13.20;88.90
23301;DHT22;11819;51.394;12.340;2023-05-07T07:45:09;13.10;88.70
23301;DHT22;11819;51.394;12.340;2023-05-07T07:47:40;13.10;89.00
23301;DHT22;11819;51.394;12.340;2023-05-07T07:50:07;13.10;88.90
23301;DHT22;11819;51.394;12.340;2023-05-07T07:52:33;13.10;88.90
23301;DHT22;11819;51.394;12.340;2023-05-07T07:54:59;13.10;88.80
23301;DHT22;11819;51.394;12.340;2023-05-07T07:57:25;13.10;88.60
23301;DHT22;11819;51.394;12.340;2023-05-07T07:59:51;13.20;88.40
23301;DHT22;11819;51.394;12.340;2023-05-07T08:02:18;13.20;87.80
23301;DHT22;11819;51.394;12.340;2023-05-07T08:04:45;13.20;87.50
23301;DHT22;11819;51.394;12.340;2023-05-07T08:07:11;13.10;87.50
23301;DHT22;11819;51.394;12.340;2023-05-07T08:09:40;13.10;87.70
23301;DHT22;11819;51.394;12.340;2023-05-07T08:12:07;13.10;87.60
23301;DHT22;11819;51.394;12.340;2023-05-07T08:14:34;13.10;87.70
23301;DHT22;11819;51.394;12.340;2023-05-07T08:17:02;13.10;87.70
23301;DHT22;11819;51.394;12.340;2023-05-07T08:19:27;13.10;87.50
23301;DHT22;11819;51.394;12.340;2023-05-07T08:21:54;13.10;87.30
23301;DHT22;11819;51.394;12.340;2023-05-07T08:24:22;13.10;87.30
23301;DHT22;11819;51.394;12.340;2023-05-07T08:26:48;13.10;87.50
23301;DHT22;11819;51.394;12.340;2023-05-07T08:29:16;13.10;87.30
23301;DHT22;11819;51.394;12.340;2023-05-07T08:31:42;13.10;87.00
23301;DHT22;11819;51.394;12.340;2023-05-07T08:34:08;13.00;87.00
23301;DHT22;11819;51.394;12.340;2023-05-07T08:36:36;13.00;87.30
23301;DHT22;11819;51.394;12.340;2023-05-07T08:39:02;13.10;87.30
23301;DHT22;11819;51.394;12.340;2023-05-07T08:41:28;13.10;86.90
23301;DHT22;11819;51.394;12.340;2023-05-07T08:43:58;13.20;86.80
23301;DHT22;11819;51.394;12.340;2023-05-07T08:46:25;13.20;86.60
23301;DHT22;11819;51.394;12.340;2023-05-07T08:48:54;13.20;86.50
23301;DHT22;11819;51.394;12.340;2023-05-07T08:51:21;13.20;86.40
23301;DHT22;11819;51.394;12.340;2023-05-07T08:53:48;13.20;86.60
23301;DHT22;11819;51.394;12.340;2023-05-07T08:56:21;13.20;86.60
23301;DHT22;11819;51.394;12.340;2023-05-07T08:58:48;13.20;86.40
23301;DHT22;11819;51.394;12.340;2023-05-07T09:01:15;13.30;86.60
23301;DHT22;11819;51.394;12.340;2023-05-07T09:03:46;13.30;86.50
23301;DHT22;11819;51.394;12.340;2023-05-07T09:06:13;13.40;86.00
23301;DHT22;11819;51.394;12.340;2023-05-07T09:08:39;13.40;85.60
23301;DHT22;11819;51.394;12.340;2023-05-07T09:11:06;13.40;85.20
23301;DHT22;11819;51.394;12.340;2023-05-07T09:13:32;13.50;85.10
23301;DHT22;11819;51.394;12.340;2023-05-07T09:16:10;13.50;85.20
23301;DHT22;11819;51.394;12.340;2023-05-07T09:18:44;13.50;85.20
23301;DHT22;11819;51.394;12.340;2023-05-07T09:21:16;13.50;85.10
23301;DHT22;11819;51.394;12.340;2023-05-07T09:23:43;13.50;85.20
23301;DHT22;11819;51.394;12.340;2023-05-07T09:26:09;13.50;85.20
23301;DHT22;11819;51.394;12.340;2023-05-07T09:28:39;13.50;85.00
23301;DHT22;11819;51.394;12.340;2023-05-07T09:31:09;13.40;85.00
23301;DHT22;11819;51.394;12.340;2023-05-07T09:33:35;13.40;85.40
23301;DHT22;11819;51.394;12.340;2023-05-07T09:36:08;13.40;85.70
23301;DHT22;11819;51.394;12.340;2023-05-07T09:38:37;13.50;85.80
23301;DHT22;11819;51.394;12.340;2023-05-07T09:41:08;13.60;86.00
23301;DHT22;11819;51.394;12.340;2023-05-07T09:43:43;13.60;86.10
23301;DHT22;11819;51.394;12.340;2023-05-07T09:46:15;13.50;85.80
23301;DHT22;11819;51.394;12.340;2023-05-07T09:48:48;13.50;86.20
23301;DHT22;11819;51.394;12.340;2023-05-07T09:51:22;13.60;86.40
23301;DHT22;11819;51.394;12.340;2023-05-07T09:53:48;13.60;86.30
23301;DHT22;11819;51.394;12.340;2023-05-07T09:56:16;13.70;86.30
23301;DHT22;11819;51.394;12.340;2023-05-07T09:58:43;13.70;86.00
23301;DHT22;11819;51.394;12.340;2023-05-07T10:01:11;13.80;85.90
23301;DHT22;11819;51.394;12.340;2023-05-07T10:03:43;13.80;85.70
23301;DHT22;11819;51.394;12.340;2023-05-07T10:06:10;13.90;85.40
23301;DHT22;11819;51.394;12.340;2023-05-07T10:08:37;13.90;85.00
23301;DHT22;11819;51.394;12.340;2023-05-07T10:11:05;13.90;84.80
23301;DHT22;11819;51.394;12.340;2023-05-07T10:13:34;13.90;84.50
23301;DHT22;11819;51.394;12.340;2023-05-07T10:16:05;13.90;84.30
23301;DHT22;11819;51.394;12.340;2023-05-07T10:18:38;13.80;84.30
23301;DHT22;11819;51.394;12.340;2023-05-07T10:21:20;13.80;84.30
23301;DHT22;11819;51.394;12.340;2023-05-07T10:23:58;13.80;84.30
23301;DHT22;11819;51.394;12.340;2023-05-07T10:26:25;13.90;84.50
23301;DHT22;11819;51.394;12.340;2023-05-07T10:29:10;13.90;84.30
23301;DHT22;11819;51.394;12.340;2023-05-07T10:31:48;14.00;84.10
23301;DHT22;11819;51.394;12.340;2023-05-07T10:34:18;14.10;84.80
23301;DHT22;11819;51.394;12.340;2023-05-07T10:36:45;14.20;83.70
23301;DHT22;11819;51.394;12.340;2023-05-07T10:39:11;14.20;83.50
23301;DHT22;11819;51.394;12.340;2023-05-07T10:41:39;14.30;83.50
23301;DHT22;11819;51.394;12.340;2023-05-07T10:44:06;14.40;83.20
23301;DHT22;11819;51.394;12.340;2023-05-07T10:46:34;14.50;83.20
23301;DHT22;11819;51.394;12.340;2023-05-07T10:49:18;14.50;82.90
23301;DHT22;11819;51.394;12.340;2023-05-07T10:52:11;14.60;82.50
23301;DHT22;11819;51.394;12.340;2023-05-07T10:54:39;14.60;82.40
23301;DHT22;11819;51.394;12.340;2023-05-07T10:59:57;14.60;82.50
23301;DHT22;11819;51.394;12.340;2023-05-07T11:03:21;14.60;82.50
23301;DHT22;11819;51.394;12.340;2023-05-07T11:06:13;14.60;82.30
23301;DHT22;11819;51.394;12.340;2023-05-07T11:08:54;14.60;82.30
23301;DHT22;11819;51.394;12.340;2023-05-07T11:11:46;14.60;82.30
23301;DHT22;11819;51.394;12.340;2023-05-07T11:14:49;14.60;82.40
23301;DHT22;11819;51.394;12.340;2023-05-07T11:17:28;14.80;82.50
23301;DHT22;11819;51.394;12.340;2023-05-07T11:20:02;14.80;82.50
23301;DHT22;11819;51.394;12.340;2023-05-07T11:22:38;14.80;82.40
23301;DHT22;11819;51.394;12.340;2023-05-07T11:25:19;14.70;82.00
23301;DHT22;11819;51.394;12.340;2023-05-07T11:27:46;14.60;82.60
23301;DHT22;11819;51.394;12.340;2023-05-07T11:30:19;14.50;82.50
23301;DHT22;11819;51.394;12.340;2023-05-07T11:32:47;14.40;82.70
23301;DHT22;11819;51.394;12.340;2023-05-07T11:35:15;14.40;83.10
23301;DHT22;11819;51.394;12.340;2023-05-07T11:37:45;14.50;83.50
23301;DHT22;11819;51.394;12.340;2023-05-07T11:40:11;14.60;83.40
23301;DHT22;11819;51.394;12.340;2023-05-07T11:42:41;14.60;82.80
23301;DHT22;11819;51.394;12.340;2023-05-07T11:45:08;14.70;82.30
23301;DHT22;11819;51.394;12.340;2023-05-07T11:47:34;14.70;82.00
23301;DHT22;11819;51.394;12.340;2023-05-07T11:50:07;14.70;81.70
23301;DHT22;11819;51.394;12.340;2023-05-07T11:52:33;14.70;81.50
23301;DHT22;11819;51.394;12.340;2023-05-07T11:55:00;14.70;81.10
23301;DHT22;11819;51.394;12.340;2023-05-07T11:57:27;14.70;80.90
23301;DHT22;11819;51.394;12.340;2023-05-07T12:00:09;14.60;80.60
23301;DHT22;11819;51.394;12.340;2023-05-07T12:02:41;14.60;80.80
23301;DHT22;11819;51.394;12.340;2023-05-07T12:05:08;14.60;81.40
23301;DHT22;11819;51.394;12.340;2023-05-07T12:07:35;14.60;81.40
23301;DHT22;11819;51.394;12.340;2023-05-07T12:10:11;14.70;81.40
23301;DHT22;11819;51.394;12.340;2023-05-07T12:12:39;14.70;80.50
23301;DHT22;11819;51.394;12.340;2023-05-07T12:15:06;14.70;80.00
23301;DHT22;11819;51.394;12.340;2023-05-07T12:17:31;14.80;79.50
23301;DHT22;11819;51.394;12.340;2023-05-07T12:19:58;14.80;79.70
23301;DHT22;11819;51.394;12.340;2023-05-07T12:22:23;14.80;79.60
23301;DHT22;11819;51.394;12.340;2023-05-07T12:24:56;14.80;79.60
23301;DHT22;11819;51.394;12.340;2023-05-07T12:27:22;14.80;80.00
23301;DHT22;11819;51.394;12.340;2023-05-07T12:29:48;14.90;80.40
23301;DHT22;11819;51.394;12.340;2023-05-07T12:32:18;14.90;80.40
23301;DHT22;11819;51.394;12.340;2023-05-07T12:34:45;15.00;80.10
23301;DHT22;11819;51.394;12.340;2023-05-07T12:37:11;15.00;79.50
23301;DHT22;11819;51.394;12.340;2023-05-07T12:39:38;15.00;79.10
23301;DHT22;11819;51.394;12.340;2023-05-07T12:42:05;15.00;79.10
23301;DHT22;11819;51.394;12.340;2023-05-07T12:44:32;15.00;79.10
23301;DHT22;11819;51.394;12.340;2023-05-07T12:47:01;15.00;79.30
23301;DHT22;11819;51.394;12.340;2023-05-07T12:49:26;15.10;79.20
23301;DHT22;11819;51.394;12.340;2023-05-07T12:51:53;15.10;78.30
23301;DHT22;11819;51.394;12.340;2023-05-07T12:54:38;15.20;78.20
23301;DHT22;11819;51.394;12.340;2023-05-07T12:57:08;15.30;78.10
23301;DHT22;11819;51.394;12.340;2023-05-07T12:59:41;15.40;77.50
23301;DHT22;11819;51.394;12.340;2023-05-07T13:02:08;15.50;76.60
23301;DHT22;11819;51.394;12.340;2023-05-07T13:04:35;15.60;76.30
23301;DHT22;11819;51.394;12.340;2023-05-07T13:07:01;15.70;76.40
23301;DHT22;11819;51.394;12.340;2023-05-07T13:09:28;15.80;76.40
23301;DHT22;11819;51.394;12.340;2023-05-07T13:11:55;16.00;76.20
23301;DHT22;11819;51.394;12.340;2023-05-07T13:14:20;16.00;75.30
23301;DHT22;11819;51.394;12.340;2023-05-07T13:16:47;16.00;74.70
23301;DHT22;11819;51.394;12.340;2023-05-07T13:19:13;16.00;75.00
23301;DHT22;11819;51.394;12.340;2023-05-07T13:21:38;16.00;75.00
23301;DHT22;11819;51.394;12.340;2023-05-07T13:24:04;15.90;75.20
23301;DHT22;11819;51.394;12.340;2023-05-07T13:26:31;15.90;75.70
23301;DHT22;11819;51.394;12.340;2023-05-07T13:28:57;15.90;75.80
23301;DHT22;11819;51.394;12.340;2023-05-07T13:31:24;15.90;75.90
23301;DHT22;11819;51.394;12.340;2023-05-07T13:33:49;15.90;75.60
23301;DHT22;11819;51.394;12.340;2023-05-07T13:36:15;15.90;75.60
23301;DHT22;11819;51.394;12.340;2023-05-07T13:38:40;15.90;75.70
23301;DHT22;11819;51.394;12.340;2023-05-07T13:41:06;15.90;75.90
23301;DHT22;11819;51.394;12.340;2023-05-07T13:43:32;15.80;75.80
23301;DHT22;11819;51.394;12.340;2023-05-07T13:46:02;15.70;76.10
23301;DHT22;11819;51.394;12.340;2023-05-07T13:48:27;15.70;76.50
23301;DHT22;11819;51.394;12.340;2023-05-07T13:50:54;15.70;76.80
23301;DHT22;11819;51.394;12.340;2023-05-07T13:53:20;15.70;76.90
23301;DHT22;11819;51.394;12.340;2023-05-07T13:55:46;15.70;76.60
23301;DHT22;11819;51.394;12.340;2023-05-07T13:58:11;15.70;76.30
23301;DHT22;11819;51.394;12.340;2023-05-07T14:00:39;15.80;76.40
23301;DHT22;11819;51.394;12.340;2023-05-07T14:03:05;15.80;76.10
23301;DHT22;11819;51.394;12.340;2023-05-07T14:05:31;15.90;76.30
23301;DHT22;11819;51.394;12.340;2023-05-07T14:07:59;15.90;76.30
23301;DHT22;11819;51.394;12.340;2023-05-07T14:10:26;15.90;76.20
23301;DHT22;11819;51.394;12.340;2023-05-07T14:12:52;16.00;76.50
23301;DHT22;11819;51.394;12.340;2023-05-07T14:15:18;16.10;76.30
23301;DHT22;11819;51.394;12.340;2023-05-07T14:17:44;16.20;76.00
23301;DHT22;11819;51.394;12.340;2023-05-07T14:20:10;16.30;75.60
23301;DHT22;11819;51.394;12.340;2023-05-07T14:22:36;16.40;75.10
23301;DHT22;11819;51.394;12.340;2023-05-07T14:25:02;16.40;74.60
23301;DHT22;11819;51.394;12.340;2023-05-07T14:27:28;16.40;74.30
23301;DHT22;11819;51.394;12.340;2023-05-07T14:29:54;16.40;74.40
23301;DHT22;11819;51.394;12.340;2023-05-07T14:32:21;16.40;74.50
23301;DHT22;11819;51.394;12.340;2023-05-07T14:34:47;16.30;74.00
23301;DHT22;11819;51.394;12.340;2023-05-07T14:37:13;16.40;74.10
23301;DHT22;11819;51.394;12.340;2023-05-07T14:39:39;16.80;73.90
23301;DHT22;11819;51.394;12.340;2023-05-07T14:42:05;17.00;72.70
23301;DHT22;11819;51.394;12.340;2023-05-07T14:44:34;17.10;71.80
23301;DHT22;11819;51.394;12.340;2023-05-07T14:46:59;17.10;71.60
23301;DHT22;11819;51.394;12.340;2023-05-07T14:49:25;17.00;71.50
23301;DHT22;11819;51.394;12.340;2023-05-07T14:51:51;16.90;71.30
23301;DHT22;11819;51.394;12.340;2023-05-07T14:54:16;16.80;71.60
23301;DHT22;11819;51.394;12.340;2023-05-07T14:56:42;16.80;71.70
23301;DHT22;11819;51.394;12.340;2023-05-07T14:59:08;16.90;71.40
23301;DHT22;11819;51.394;12.340;2023-05-07T15:01:36;17.00;71.40
23301;DHT22;11819;51.394;12.340;2023-05-07T15:04:05;17.00;71.30
23301;DHT22;11819;51.394;12.340;2023-05-07T15:06:31;17.00;71.50
23301;DHT22;11819;51.394;12.340;2023-05-07T15:08:57;16.90;72.80
23301;DHT22;11819;51.394;12.340;2023-05-07T15:11:23;16.70;72.40
23301;DHT22;11819;51.394;12.340;2023-05-07T15:13:49;16.60;73.10
23301;DHT22;11819;51.394;12.340;2023-05-07T15:16:15;16.60;73.30
23301;DHT22;11819;51.394;12.340;2023-05-07T15:18:40;16.50;72.70
23301;DHT22;11819;51.394;12.340;2023-05-07T15:21:06;16.50;72.70
23301;DHT22;11819;51.394;12.340;2023-05-07T15:23:33;16.50;72.50